createdAt,value
2022-10-02T00:01:14.066Z,77.39
2022-10-02T00:03:43.677Z,76.92
2022-10-02T00:06:23.174Z,77.34
2022-10-02T00:08:59.860Z,76.61
2022-10-02T00:11:45.616Z,76.15
2022-10-02T00:14:18.444Z,76.36
2022-10-02T00:16:54.883Z,77.31
2022-10-02T00:19:22.250Z,76.18
2022-10-02T00:22:22.332Z,77.60
2022-10-02T00:25:17.493Z,77.84
2022-10-02T00:28:28.140Z,78.29
2022-10-02T00:31:26.949Z,78.14
2022-10-02T00:34:21.686Z,78.32
2022-10-02T00:37:22.464Z,77.71
2022-10-02T00:40:29.820Z,73.42
2022-10-02T00:44:05.385Z,75.38
2022-10-02T00:47:04.437Z,76.05
2022-10-02T00:50:28.214Z,76.30
2022-10-02T00:53:34.856Z,76.34
2022-10-02T00:56:41.277Z,77.37
2022-10-02T00:59:34.042Z,77.38
2022-10-02T01:02:31.198Z,76.62
2022-10-02T01:05:03.793Z,77.91
2022-10-02T01:07:31.238Z,77.39
2022-10-02T01:09:59.284Z,77.19
2022-10-02T01:12:26.956Z,77.91
2022-10-02T01:17:51.421Z,76.94
2022-10-02T01:20:32.304Z,77.43
2022-10-02T01:23:32.455Z,77.43
2022-10-02T01:26:00.435Z,77.49
2022-10-02T01:28:29.032Z,77.01
2022-10-02T01:31:07.628Z,77.27
2022-10-02T01:33:37.398Z,77.49
2022-10-02T01:36:05.519Z,77.33
2022-10-02T01:38:32.852Z,77.07
2022-10-02T01:41:00.187Z,77.24
2022-10-02T01:43:39.752Z,76.88
2022-10-02T01:46:38.081Z,76.77
2022-10-02T01:49:43.505Z,77.58
2022-10-02T01:53:13.956Z,72.87
2022-10-02T01:56:29.665Z,75.44
2022-10-02T01:59:53.390Z,77.16
2022-10-02T02:02:43.249Z,77.03
2022-10-02T02:05:43.389Z,76.70
2022-10-02T02:08:47.362Z,76.89
2022-10-02T02:11:21.547Z,73.30
2022-10-02T02:14:09.676Z,74.64
2022-10-02T02:17:46.340Z,76.28
2022-10-02T02:20:41.695Z,75.43
2022-10-02T02:23:15.731Z,76.51
2022-10-02T02:26:57.935Z,75.64
2022-10-02T02:29:31.943Z,77.03
2022-10-02T02:33:14.016Z,77.50
2022-10-02T02:35:50.835Z,76.26
2022-10-02T02:38:37.207Z,77.14
2022-10-02T02:42:22.687Z,77.99
2022-10-02T02:45:38.861Z,75.81
2022-10-02T02:49:21.111Z,76.73
2022-10-02T02:51:50.166Z,76.76
2022-10-02T02:54:31.076Z,76.69
2022-10-02T02:57:05.004Z,78.05
2022-10-02T03:00:47.785Z,77.80
2022-10-02T03:04:30.458Z,77.17
2022-10-02T03:07:03.982Z,77.87
2022-10-02T03:10:48.308Z,78.00
2022-10-02T03:14:31.120Z,78.02
2022-10-02T03:18:14.116Z,77.92
2022-10-02T03:21:24.698Z,77.55
2022-10-02T03:24:13.633Z,76.52
2022-10-02T03:26:56.762Z,74.69
2022-10-02T03:29:56.860Z,75.71
2022-10-02T03:32:26.424Z,75.31
2022-10-02T03:34:55.090Z,75.69
2022-10-02T03:37:25.177Z,77.35
2022-10-02T03:39:52.850Z,76.69
2022-10-02T03:42:27.625Z,77.85
2022-10-02T03:44:55.031Z,77.74
2022-10-02T03:47:22.313Z,78.11
2022-10-02T03:49:49.595Z,77.32
2022-10-02T03:52:22.249Z,76.52
2022-10-02T03:55:34.752Z,77.91
2022-10-02T03:58:13.934Z,75.60
2022-10-02T04:01:17.231Z,76.56
2022-10-02T04:04:24.686Z,77.47
2022-10-02T04:07:01.749Z,74.90
2022-10-02T04:09:35.446Z,76.62
2022-10-02T04:12:43.132Z,76.82
2022-10-02T04:16:05.772Z,77.17
2022-10-02T04:19:20.170Z,76.88
2022-10-02T04:22:34.135Z,75.04
2022-10-02T04:26:01.406Z,76.68
2022-10-02T04:28:57.400Z,75.81
2022-10-02T04:31:33.004Z,77.13
2022-10-02T04:34:54.804Z,76.38
2022-10-02T04:39:01.502Z,76.60
2022-10-02T04:42:47.559Z,76.48
2022-10-02T04:49:27.145Z,75.50
2022-10-02T04:52:44.499Z,78.97
2022-10-02T04:55:41.626Z,78.10
2022-10-02T04:58:45.418Z,77.67
2022-10-02T05:02:13.733Z,75.65
2022-10-02T05:05:23.512Z,77.49
2022-10-02T05:08:59.544Z,78.27
2022-10-02T05:12:09.948Z,76.12
2022-10-02T05:15:31.909Z,75.74
2022-10-02T05:18:33.408Z,76.75
2022-10-02T05:21:22.681Z,76.85
2022-10-02T05:24:47.785Z,76.86
2022-10-02T05:28:04.439Z,76.85
2022-10-02T05:31:02.298Z,77.04
2022-10-02T05:34:28.374Z,77.10
2022-10-02T05:37:48.560Z,77.05
2022-10-02T05:40:57.628Z,76.85
2022-10-02T05:44:15.332Z,77.16
2022-10-02T05:47:28.796Z,77.21
2022-10-02T05:50:31.757Z,77.79
2022-10-02T05:53:36.443Z,77.68
2022-10-02T05:56:18.831Z,78.24
2022-10-02T05:59:18.818Z,78.18
2022-10-02T06:01:50.760Z,75.83
2022-10-02T06:04:31.928Z,76.76
2022-10-02T06:07:11.347Z,77.41
2022-10-02T06:09:57.085Z,77.38
2022-10-02T06:13:09.078Z,77.46
2022-10-02T06:16:24.580Z,77.63
2022-10-02T06:19:27.578Z,78.26
2022-10-02T06:22:28.065Z,77.86
2022-10-02T06:25:24.199Z,76.90
2022-10-02T06:28:21.426Z,76.60
2022-10-02T06:31:37.290Z,75.96
2022-10-02T06:34:04.872Z,75.35
2022-10-02T06:37:14.140Z,73.20
2022-10-02T06:40:26.202Z,76.18
2022-10-02T06:43:58.779Z,77.34
2022-10-02T06:46:51.544Z,77.93
2022-10-02T06:49:57.870Z,78.32
2022-10-02T06:52:37.968Z,76.38
2022-10-02T06:55:31.889Z,77.35
2022-10-02T06:58:38.432Z,76.95
2022-10-02T07:01:52.773Z,76.09
2022-10-02T07:05:26.781Z,76.85
2022-10-02T07:08:15.741Z,78.11
2022-10-02T07:10:59.356Z,77.85
2022-10-02T07:14:41.844Z,78.35
2022-10-02T07:18:25.465Z,78.34
2022-10-02T07:21:54.451Z,77.83
2022-10-02T07:25:37.354Z,78.70
2022-10-02T07:29:28.093Z,78.05
2022-10-02T07:33:13.618Z,77.70
2022-10-02T07:36:03.651Z,77.38
2022-10-02T07:39:49.714Z,77.74
2022-10-02T07:43:10.918Z,78.24
2022-10-02T07:46:32.113Z,77.61
2022-10-02T07:50:36.655Z,78.01
2022-10-02T07:53:45.299Z,78.32
2022-10-02T07:58:01.585Z,77.93
2022-10-02T08:02:14.548Z,78.29
2022-10-02T08:06:03.757Z,77.77
2022-10-02T08:09:20.631Z,77.88
2022-10-02T08:13:45.466Z,77.79
2022-10-02T08:16:23.319Z,77.98
2022-10-02T08:19:02.791Z,76.82
2022-10-02T08:21:42.855Z,76.64
2022-10-02T08:24:24.755Z,77.13
2022-10-02T08:27:03.458Z,77.11
2022-10-02T08:29:40.154Z,76.72
2022-10-02T08:32:12.293Z,76.21
2022-10-02T08:34:42.260Z,75.18
2022-10-02T08:38:10.265Z,75.86
2022-10-02T08:41:36.778Z,73.83
2022-10-02T08:44:35.991Z,72.73
2022-10-02T08:47:55.164Z,72.56
2022-10-02T08:51:27.347Z,72.85
2022-10-02T08:54:44.508Z,70.78
2022-10-02T08:57:37.799Z,70.62
2022-10-02T09:01:35.389Z,66.37
2022-10-02T09:04:31.424Z,63.54
2022-10-02T09:07:48.986Z,54.36
2022-10-02T09:17:04.481Z,57.38
2022-10-02T09:26:30.315Z,61.35
2022-10-02T09:30:48.991Z,60.88
2022-10-02T09:35:33.263Z,57.88
2022-10-02T09:39:51.873Z,53.06
2022-10-02T09:44:40.359Z,50.30
2022-10-02T09:47:51.284Z,47.53
2022-10-02T09:52:36.438Z,48.04
2022-10-02T09:55:29.433Z,47.94
2022-10-02T09:59:11.901Z,48.71
2022-10-02T10:02:22.257Z,48.26
2022-10-02T10:05:41.012Z,51.37
2022-10-02T10:08:49.444Z,53.37
2022-10-02T10:12:06.643Z,52.79
2022-10-02T10:15:29.448Z,53.91
2022-10-02T10:18:27.834Z,57.79
2022-10-02T10:21:46.537Z,56.63
2022-10-02T10:24:52.587Z,58.44
2022-10-02T10:28:00.338Z,63.61
2022-10-02T10:30:44.470Z,64.32
2022-10-02T10:33:34.597Z,69.29
2022-10-02T10:37:24.026Z,73.52
2022-10-02T10:40:47.700Z,69.73
2022-10-02T10:43:37.542Z,70.71
2022-10-02T10:46:35.928Z,73.82
2022-10-02T10:49:55.091Z,71.71
2022-10-02T10:53:04.318Z,69.95
2022-10-02T10:56:19.471Z,69.77
2022-10-02T10:59:24.435Z,68.80
2022-10-02T11:02:45.172Z,67.73
2022-10-02T11:06:13.232Z,67.57
2022-10-02T11:09:31.220Z,66.10
2022-10-02T11:12:41.005Z,70.33
2022-10-02T11:16:15.145Z,68.16
2022-10-02T11:20:00.771Z,67.12
2022-10-02T11:22:37.846Z,64.76
2022-10-02T11:25:14.684Z,63.39
2022-10-02T11:28:12.859Z,60.44
2022-10-02T11:31:12.094Z,59.13
2022-10-02T11:34:22.157Z,56.93
2022-10-02T11:37:31.558Z,55.25
2022-10-02T11:40:43.225Z,57.82
2022-10-02T11:43:44.386Z,58.03
2022-10-02T11:47:14.229Z,58.08
2022-10-02T11:50:19.028Z,58.38
2022-10-02T11:53:43.818Z,56.29
2022-10-02T11:56:38.968Z,56.69
2022-10-02T12:00:09.344Z,56.43
2022-10-02T12:02:56.364Z,56.73
2022-10-02T12:05:46.965Z,58.40
2022-10-02T12:09:01.901Z,60.06
2022-10-02T12:11:51.161Z,63.76
2022-10-02T12:14:49.493Z,65.80
2022-10-02T12:18:02.548Z,69.00
2022-10-02T12:21:37.678Z,69.65
2022-10-02T12:25:01.498Z,71.17
2022-10-02T12:28:39.490Z,69.81
2022-10-02T12:31:33.585Z,71.20
2022-10-02T12:34:32.189Z,71.99
2022-10-02T12:37:28.815Z,70.35
2022-10-02T12:40:45.561Z,70.62
2022-10-02T12:43:59.346Z,73.03
2022-10-02T12:47:16.735Z,72.70
2022-10-02T12:50:18.051Z,74.81
2022-10-02T12:53:38.385Z,74.78
2022-10-02T12:56:51.893Z,76.23
2022-10-02T12:59:51.278Z,73.78
2022-10-02T13:03:00.302Z,73.47
2022-10-02T13:05:46.821Z,74.27
2022-10-02T13:08:51.410Z,74.42
2022-10-02T13:12:40.399Z,74.33
2022-10-02T13:15:37.380Z,76.27
2022-10-02T13:19:01.781Z,76.16
2022-10-02T13:21:58.945Z,75.79
2022-10-02T13:25:23.139Z,76.26
2022-10-02T13:28:39.552Z,74.13
2022-10-02T13:31:55.415Z,76.87
2022-10-02T13:35:22.417Z,75.71
2022-10-02T13:37:49.568Z,75.23
2022-10-02T13:41:18.563Z,75.84
2022-10-02T13:44:33.933Z,75.98
2022-10-02T13:47:26.704Z,75.79
2022-10-02T13:50:46.549Z,75.67
2022-10-02T13:53:59.623Z,74.23
2022-10-02T13:57:41.161Z,73.13
2022-10-02T14:00:22.635Z,73.49
2022-10-02T14:03:15.749Z,73.42
2022-10-02T14:06:25.107Z,72.52
2022-10-02T14:09:12.496Z,69.11
2022-10-02T14:12:12.685Z,73.27
2022-10-02T14:15:35.568Z,71.32
2022-10-02T14:18:35.341Z,70.76
2022-10-02T14:21:39.365Z,72.41
2022-10-02T14:25:17.663Z,72.70
2022-10-02T14:28:45.861Z,72.02
2022-10-02T14:32:34.878Z,70.94
2022-10-02T14:35:31.040Z,71.00
2022-10-02T14:38:50.253Z,74.14
2022-10-02T14:41:48.587Z,74.34
2022-10-02T14:44:50.632Z,72.55
2022-10-02T14:47:46.397Z,70.81
2022-10-02T14:50:37.815Z,70.96
2022-10-02T14:53:52.225Z,70.29
2022-10-02T14:56:49.918Z,68.39
2022-10-02T14:59:38.341Z,68.20
2022-10-02T15:02:11.306Z,68.18
2022-10-02T15:05:12.124Z,68.41
2022-10-02T15:07:40.941Z,68.47
2022-10-02T15:10:32.920Z,71.44
2022-10-02T15:13:35.044Z,72.33
2022-10-02T15:16:55.573Z,71.92
2022-10-02T15:20:18.731Z,73.50
2022-10-02T15:23:09.721Z,73.55
2022-10-02T15:26:07.422Z,73.96
2022-10-02T15:29:24.966Z,74.95
2022-10-02T15:32:25.132Z,75.68
2022-10-02T15:35:31.046Z,75.43
2022-10-02T15:38:20.324Z,73.85
2022-10-02T15:41:47.965Z,75.00
2022-10-02T15:45:10.320Z,75.17
2022-10-02T15:48:22.781Z,73.41
2022-10-02T15:51:43.923Z,75.32
2022-10-02T15:54:36.314Z,76.24
2022-10-02T15:57:50.896Z,76.43
2022-10-02T16:00:27.292Z,76.50
2022-10-02T16:03:22.955Z,76.16
2022-10-02T16:06:07.930Z,76.28
2022-10-02T16:09:26.407Z,76.91
2022-10-02T16:13:14.607Z,76.15
2022-10-02T16:16:32.709Z,75.96
2022-10-02T16:19:58.004Z,76.74
2022-10-02T16:22:58.107Z,76.65
2022-10-02T16:26:10.699Z,77.59
2022-10-02T16:29:33.064Z,78.25
2022-10-02T16:32:45.584Z,78.38
2022-10-02T16:35:51.344Z,78.56
2022-10-02T16:38:52.107Z,78.31
2022-10-02T16:41:28.821Z,78.16
2022-10-02T16:44:19.009Z,78.63
2022-10-02T16:47:14.283Z,78.72
2022-10-02T16:50:01.610Z,78.64
2022-10-02T16:52:58.400Z,78.31
2022-10-02T16:56:06.896Z,78.88
2022-10-02T16:59:01.383Z,79.31
2022-10-02T17:02:16.411Z,79.54
2022-10-02T17:05:56.681Z,78.74
2022-10-02T17:09:08.246Z,79.21
2022-10-02T17:12:53.393Z,77.63
2022-10-02T17:16:36.746Z,77.69
2022-10-02T17:20:20.678Z,77.74
2022-10-02T17:23:48.456Z,77.76
2022-10-02T17:26:55.821Z,78.97
2022-10-02T17:29:42.232Z,78.01
2022-10-02T17:32:10.220Z,77.66
2022-10-02T17:35:52.746Z,78.62
2022-10-02T17:39:35.225Z,78.28
2022-10-02T17:42:41.249Z,79.42
2022-10-02T17:46:23.504Z,79.69
2022-10-02T17:49:38.609Z,79.52
2022-10-02T17:53:41.789Z,79.81
2022-10-02T17:57:24.023Z,78.78
2022-10-02T18:00:23.902Z,79.83
2022-10-02T18:03:16.622Z,79.01
2022-10-02T18:06:17.155Z,79.07
2022-10-02T18:09:52.067Z,79.40
2022-10-02T18:13:27.876Z,79.58
2022-10-02T18:16:36.540Z,79.48
2022-10-02T18:19:54.485Z,78.72
2022-10-02T18:23:16.949Z,78.26
2022-10-02T18:27:01.268Z,76.84
2022-10-02T18:30:11.042Z,76.09
2022-10-02T18:33:25.357Z,77.11
2022-10-02T18:36:29.781Z,77.27
2022-10-02T18:40:08.960Z,77.32
2022-10-02T18:43:49.856Z,78.87
2022-10-02T18:47:31.603Z,78.10
2022-10-02T18:51:14.077Z,78.37
2022-10-02T18:54:45.436Z,78.46
2022-10-02T18:58:02.821Z,78.05
2022-10-02T19:01:59.534Z,78.90
2022-10-02T19:05:33.534Z,76.00
2022-10-02T19:08:03.706Z,76.92
2022-10-02T19:10:55.723Z,77.52
2022-10-02T19:13:41.237Z,77.21
2022-10-02T19:16:34.325Z,78.32
2022-10-02T19:19:26.080Z,77.62
2022-10-02T19:22:13.933Z,76.55
2022-10-02T19:25:57.141Z,75.54
2022-10-02T19:28:29.944Z,75.65
2022-10-02T19:31:07.922Z,75.65
2022-10-02T19:34:50.882Z,77.21
2022-10-02T19:38:36.973Z,77.85
2022-10-02T19:41:13.694Z,77.93
2022-10-02T19:43:57.773Z,78.21
2022-10-02T19:47:41.297Z,78.26
2022-10-02T19:50:25.411Z,77.90
2022-10-02T19:53:26.640Z,77.27
2022-10-02T19:56:13.110Z,77.84
2022-10-02T19:59:56.302Z,78.44
2022-10-02T20:03:39.227Z,78.31
2022-10-02T20:06:22.897Z,78.03
2022-10-02T20:10:05.779Z,78.81
2022-10-02T20:13:48.845Z,78.07
2022-10-02T20:16:44.253Z,78.33
2022-10-02T20:19:27.898Z,78.11
2022-10-02T20:23:11.585Z,78.01
2022-10-02T20:25:51.092Z,78.08
2022-10-02T20:28:45.932Z,77.42
2022-10-02T20:31:47.723Z,77.66
2022-10-02T20:34:53.445Z,77.85
2022-10-02T20:37:31.637Z,78.33
2022-10-02T20:41:14.432Z,78.60
2022-10-02T20:44:57.259Z,78.63
2022-10-02T20:49:06.300Z,77.97
2022-10-02T20:52:43.176Z,78.45
2022-10-02T20:56:26.148Z,78.74
2022-10-02T21:00:09.757Z,78.05
2022-10-02T21:03:47.637Z,77.82
2022-10-02T21:07:31.074Z,77.75
2022-10-02T21:11:13.925Z,77.50
2022-10-02T21:14:09.335Z,78.09
2022-10-02T21:18:07.693Z,78.02
2022-10-02T21:21:44.824Z,77.86
2022-10-02T21:25:19.173Z,78.13
2022-10-02T21:28:48.119Z,78.36
2022-10-02T21:31:54.782Z,77.97
2022-10-02T21:34:54.051Z,77.61
2022-10-02T21:38:56.826Z,77.89
2022-10-02T21:42:00.159Z,78.41
2022-10-02T21:45:21.679Z,78.91
2022-10-02T21:49:05.033Z,78.18
2022-10-02T21:52:44.867Z,78.29
2022-10-02T21:56:16.658Z,77.89
2022-10-02T21:59:44.860Z,78.74
2022-10-02T22:03:12.146Z,78.93
2022-10-02T22:06:40.854Z,77.81
2022-10-02T22:09:22.753Z,79.17
2022-10-02T22:13:08.329Z,78.98
2022-10-02T22:16:27.726Z,79.96
2022-10-02T22:20:11.145Z,79.54
2022-10-02T22:23:53.995Z,78.87
2022-10-02T22:27:37.391Z,78.33
2022-10-02T22:31:23.505Z,77.51
2022-10-02T22:35:06.974Z,78.01
2022-10-02T22:38:49.832Z,78.45
2022-10-02T22:42:32.906Z,78.44
2022-10-02T22:46:15.810Z,78.29
2022-10-02T22:49:58.570Z,78.84
2022-10-02T22:53:41.526Z,78.05
2022-10-02T22:57:27.751Z,77.75
2022-10-02T23:01:12.780Z,77.39
2022-10-02T23:04:56.643Z,78.10
2022-10-02T23:08:13.742Z,78.22
2022-10-02T23:10:54.413Z,78.25
2022-10-02T23:14:37.048Z,79.71
2022-10-02T23:17:26.028Z,78.84
2022-10-02T23:21:13.866Z,79.21
2022-10-02T23:23:43.563Z,78.09
2022-10-02T23:26:44.256Z,77.96
2022-10-02T23:30:27.160Z,77.82
2022-10-02T23:34:10.005Z,77.89
2022-10-02T23:36:57.355Z,77.84
2022-10-02T23:39:59.404Z,77.88
2022-10-02T23:43:43.238Z,77.47
2022-10-02T23:46:22.267Z,78.36
2022-10-02T23:48:52.088Z,78.04
2022-10-02T23:52:35.174Z,77.72
2022-10-02T23:56:22.391Z,78.18
